x

Delaware Bay 26 Nm Southeast Of Cape May, Nj (44009) Wave Buoy

8:50pm - Tue 27th Jun 2017 All times are EDT. -4 hours from GMT.

  • Sig Wave height 1.0ft
  • Swell Direction
  • Peak Period 8s
  • Average Period 5s
  • Wind
    7mph, 9mph gusts
  • Sea Temp 70°f
  • Air Temp 70°f
  • Sea Pressure 1016.1mb
  • Delaware Bay 26 Nm Southeast Of Cape May, Nj
  • Delaware Bay 26 Nm Southeast Of Cape May, Nj

More Historic Weather Station data

Upgrade to MSW Pro to gain access to the past 30 days of data for over 8000 Wavebouys and Weather Stations around the globe.

Join Pro

Comparision Forecast

View Surf forecast
   
Tue 06/27 8:50pm 1ft 8s 5s 7 9 mph 1016.1mb 70f 70f
7:50pm 1ft 8s 5s 7 7 mph 1016mb 70f 71f
6:50pm 1.3ft 6s 5s 7 9 mph 1015.4mb 70f 71f
5:50pm 1.3ft 7s 5s 7 9 mph 1015.7mb 71f 72f
4:50pm 1.3ft 6s 5s 4 7 mph 1015.8mb 71f 73f
3:50pm 1.3ft 6s 5s 2 4 mph 1016mb 72f 72f
2:50pm 1.3ft 7s 5s 2 2 mph 1016.1mb 72f 71f
1:50pm 1.6ft 6s 5s 2 2 mph 1016.5mb 70f 70f
12:50pm 1.6ft 6s 4s 2 2 mph 1016.7mb 69f 69f
11:50am 1.6ft 6s 4s 2 4 mph 1017mb 68f 68f
10:50am 1.6ft 7s 4s 7 9 mph 1017mb 68f 67f
9:50am 1.3ft 6s 4s 13 16 mph 1016.7mb 68f 68f
8:50am 1.3ft 6s 4s 11 13 mph 1017mb 68f 69f
7:50am 1.3ft 7s 4s 13 16 mph 1016.2mb 68f 70f
6:50am 1.3ft 7s 5s 11 13 mph 1016.2mb 68f 70f
5:50am 1.3ft 7s 5s 9 11 mph 1016.3mb 68f 70f
4:50am 1.3ft 8s 5s 11 11 mph 1015.9mb 68f 70f
3:50am 1.3ft 8s 4s 9 11 mph 1016mb 68f 70f
2:50am 1.3ft 8s 4s 11 11 mph 1016.1mb 68f 70f
1:50am 1.3ft 8s 4s 9 9 mph 1016.5mb 68f 70f
12:50am 1.3ft 8s 4s 11 13 mph 1016.7mb 68f 70f
Mon 06/26 11:50pm 1.3ft 7s 4s 9 11 mph 1016.8mb 68f 71f
10:50pm 1.3ft 8s 4s 9 11 mph 1017mb 69f 71f
9:50pm 1.3ft 8s 4s 9 11 mph 1016.9mb 68f 71f
8:50pm 1.6ft 6s 4s 11 11 mph 1016.7mb 69f 71f
7:50pm 1.6ft 7s 5s 11 11 mph 1017.1mb 69f 71f
6:50pm 1.6ft 8s 5s 9 11 mph 1017.2mb 70f 72f
5:50pm 1.6ft 6s 5s 9 11 mph 1017.2mb 69f 72f
4:50pm 1.6ft 6s 6s 9 11 mph 1017.6mb 70f 72f
3:50pm 1.3ft 6s 6s 9 11 mph 1017.9mb 71f 72f
2:50pm 1.3ft 7s 5s 9 11 mph 1018mb 72f 72f
1:50pm 1.3ft 6s 5s 4 4 mph 1018.4mb 71f 72f
12:50pm 1.3ft 6s 5s 2 4 mph 1018.8mb 70f 70f
11:50am 1.3ft 7s 6s 2 4 mph 1019.2mb 69f 69f
10:50am 1.6ft 7s 5s 4 4 mph 1019.1mb 68f 69f
9:50am 1.3ft 7s 5s  -  2 mph 1018.9mb 68f 70f
8:50am 1.6ft 7s 5s 4 7 mph 1018.6mb 67f 69f
7:50am 1.6ft 7s 5s 7 9 mph 1018.4mb 67f 69f
6:50am 2ft 7s 5s 7 9 mph 1017.9mb 67f 70f
5:50am 2ft 6s 6s 7 9 mph 1017.3mb 68f 69f
4:50am 2ft 7s 6s 7 7 mph 1017mb 68f 70f
3:50am 2ft 7s 6s 9 11 mph 1016.6mb 68f 70f
2:50am 2ft 7s 6s 7 9 mph 1016.8mb 68f 71f
1:50am 2ft 7s 5s 7 7 mph 1016.9mb 68f 72f
12:50am 2.5ft 6s 6s 9 11 mph 1016.7mb 68f 73f
Sun 06/25 11:50pm 2.5ft 6s 5s 9 11 mph 1016.3mb 69f 71f
10:50pm 2.5ft 5s 5s 9 9 mph 1016.4mb 69f 71f
9:50pm 2.5ft 7s 5s 9 11 mph 1016.4mb 70f 72f
8:50pm 2.5ft 6s 5s 7 9 mph 1015.9mb 69f 72f
7:50pm 2.5ft 6s 5s 7 9 mph 1015.9mb 70f 71f
6:50pm 2.5ft 7s 6s 9 11 mph 1015.5mb 70f 72f
5:50pm 2.5ft 7s 6s 9 9 mph 1015.2mb 70f 72f
4:50pm 2.5ft 7s 6s 9 9 mph 1015.4mb 70f 72f
3:50pm 2.5ft 7s 6s 4 7 mph 1015.7mb 71f 72f
2:50pm 2.5ft 7s 6s 4 4 mph 1016.1mb 71f 71f
1:50pm 2ft 7s 6s 4 4 mph 1016.7mb 70f 70f
12:50pm 2.5ft 7s 6s 7 7 mph 1016.8mb 69f 70f
11:50am 2.5ft 8s 6s 7 7 mph 1016.8mb 68f 70f
10:50am 2.5ft 8s 6s 4 7 mph 1016.5mb 68f 70f
9:50am 3ft 8s 6s 7 7 mph 1016.2mb 67f 70f
8:50am 3ft 7s 5s 4 7 mph 1016mb 67f 70f
7:50am 3ft 7s 5s 7 9 mph 1015.8mb 67f 69f
6:50am 3.5ft 7s 6s 4 7 mph 1015.5mb 66f 70f
5:50am 3.5ft 8s 6s 4 7 mph 1015.1mb 67f 69f
4:50am 3.5ft 8s 6s 4 4 mph 1014.7mb 67f 69f
3:50am 3.5ft 7s 6s 4 4 mph 1014.5mb 67f 70f
2:50am 3.5ft 7s 6s 4 7 mph 1014.2mb 68f 70f
1:50am 3.5ft 7s 6s 7 7 mph 1014.4mb 68f 70f
12:50am 4ft 8s 6s 7 9 mph 1014.7mb 68f 70f
Sat 06/24 11:50pm 3.5ft 8s 6s 9 11 mph 1014.8mb 67f 70f
10:50pm 3.5ft 8s 6s 9 11 mph 1014.7mb 68f 70f
9:50pm 3.5ft 8s 6s 9 11 mph 1014.6mb 68f 71f
8:50pm 4ft 8s 6s 9 11 mph 1013.4mb 68f 71f
7:50pm 4ft 8s 6s 9 13 mph 1012.8mb 68f 71f
6:50pm 4.5ft 7s 6s 9 9 mph 1012.5mb 68f 71f
5:50pm 4.5ft 8s 6s 9 11 mph 1012mb 67f 71f
4:50pm 4.5ft 8s 5s 9 9 mph 1012mb 67f 74f
3:50pm 4.5ft 8s 6s 7 9 mph 1011.7mb 67f 72f
2:50pm 4.5ft 8s 6s 9 11 mph 1011.3mb 67f 72f
1:50pm 4.5ft 8s 6s 9 11 mph 1011.1mb 67f 72f
12:50pm 5ft 8s 6s 9 11 mph 1011mb 66f 70f
11:50am 5.5ft 8s 6s 11 11 mph 1010mb 66f 71f
10:50am 6ft 8s 6s 11 13 mph 1009.4mb 66f 69f
9:50am 6ft 8s 6s 13 16 mph 1008.3mb 65f 69f
8:50am 7ft 7s 5s 13 16 mph 1007mb 66f 71f
7:50am 6.5ft 7s 5s 31 38 mph 1003.6mb 65f 71f
6:50am 6ft 7s 5s 29 34 mph 1003.9mb 65f 71f
5:50am 5.5ft 7s 5s 27 34 mph 1004.3mb 66f 72f
4:50am 5.5ft 6s 5s 25 29 mph 1004.9mb 66f 71f
3:50am 5ft 7s 5s 22 27 mph 1005.7mb 66f 71f
2:50am 5ft 6s 5s 25 29 mph 1006.3mb 67f 71f